Time;durP1;ratioP1;P1;durP2;ratioP2;P2;SDS_P1;SDS_P2;PMS_P1;PMS_P2;Temp;Humidity;BMP_temperature;BMP_pressure;BME280_temperature;BME280_humidity;BME280_pressure;Samples;Min_cycle;Max_cycle;Signal;HPM_P1;HPM_P2
2024/04/05 00:01:27;;;;;;;;;;;15.90;57.00;;;;;;5044687;27;87888;-55
2024/04/05 00:03:53;;;;;;;;;;;15.90;57.00;;;;;;5045244;27;87555;-55
2024/04/05 00:06:18;;;;;;;;;;;15.90;57.00;;;;;;5044748;27;86939;-54
2024/04/05 00:08:44;;;;;;;;;;;15.90;57.00;;;;;;5045448;27;87442;-55
2024/04/05 00:11:10;;;;;;;;;;;15.90;57.00;;;;;;5042531;28;87349;-53
2024/04/05 00:13:35;;;;;;;;;;;15.80;57.00;;;;;;5040849;28;87691;-53
2024/04/05 00:16:03;;;;;;;;;;;15.80;57.10;;;;;;5043107;28;86771;-55
2024/04/05 00:18:33;;;;;;;;;;;15.80;57.10;;;;;;5043618;28;87189;-54
2024/04/05 00:20:59;;;;;;;;;;;15.80;57.10;;;;;;5045132;27;87996;-52
2024/04/05 00:23:25;;;;;;;;;;;15.80;57.00;;;;;;5044703;27;88331;-55
2024/04/05 00:26:02;;;;;;;;;;;15.80;57.10;;;;;;5042917;27;87058;-55
2024/04/05 00:28:28;;;;;;;;;;;15.70;57.10;;;;;;5044386;27;88126;-56
2024/04/05 00:30:54;;;;;;;;;;;15.80;57.10;;;;;;5045259;27;87596;-54
2024/04/05 00:33:20;;;;;;;;;;;15.70;57.00;;;;;;5044850;28;86914;-53
2024/04/05 00:35:52;;;;;;;;;;;15.70;56.90;;;;;;5045773;27;87557;-56
2024/04/05 00:38:18;;;;;;;;;;;15.60;56.90;;;;;;5044817;27;87070;-54
2024/04/05 00:40:45;;;;;;;;;;;15.70;56.90;;;;;;5045700;28;86871;-55
2024/04/05 00:43:10;;;;;;;;;;;15.70;56.90;;;;;;5043863;27;88444;-53
2024/04/05 00:45:36;;;;;;;;;;;15.60;57.00;;;;;;5045551;27;86918;-52
2024/04/05 00:48:02;;;;;;;;;;;15.60;56.90;;;;;;5044991;27;87872;-55
2024/04/05 00:50:30;;;;;;;;;;;15.60;56.90;;;;;;5044533;28;87677;-53
2024/04/05 00:52:57;;;;;;;;;;;15.60;56.90;;;;;;5045274;27;87870;-54
2024/04/05 00:55:22;;;;;;;;;;;15.60;57.00;;;;;;5046056;28;87085;-56
2024/04/05 00:57:48;;;;;;;;;;;15.50;56.90;;;;;;5044262;27;87993;-56
2024/04/05 01:00:15;;;;;;;;;;;15.50;57.10;;;;;;5042518;28;86869;-55
2024/04/05 01:02:41;;;;;;;;;;;15.50;57.10;;;;;;5044433;27;87456;-53
2024/04/05 01:05:06;;;;;;;;;;;15.50;57.00;;;;;;5044968;28;86499;-52
2024/04/05 01:07:32;;;;;;;;;;;15.40;57.10;;;;;;5039119;27;88045;-52
2024/04/05 01:09:58;;;;;;;;;;;15.50;57.10;;;;;;5042982;28;88670;-53
2024/04/05 01:12:23;;;;;;;;;;;15.40;57.00;;;;;;5044041;27;88709;-52
2024/04/05 01:14:49;;;;;;;;;;;15.40;57.10;;;;;;5044008;27;88167;-56
2024/04/05 01:17:15;;;;;;;;;;;15.40;57.70;;;;;;5046135;28;87676;-52
2024/04/05 01:19:41;;;;;;;;;;;15.40;57.20;;;;;;5039618;27;87348;-54
2024/04/05 01:22:11;;;;;;;;;;;15.40;57.10;;;;;;5043725;27;87871;-51
2024/04/05 01:24:38;;;;;;;;;;;15.40;57.20;;;;;;5043294;27;86990;-52
2024/04/05 01:27:04;;;;;;;;;;;15.30;57.20;;;;;;5043748;28;87087;-54
2024/04/05 01:29:29;;;;;;;;;;;15.30;57.20;;;;;;5040753;27;87578;-51
2024/04/05 01:31:55;;;;;;;;;;;15.30;57.20;;;;;;5043607;27;87707;-53
2024/04/05 01:34:20;;;;;;;;;;;15.30;57.10;;;;;;5044539;28;86922;-52
2024/04/05 01:36:46;;;;;;;;;;;15.30;57.20;;;;;;5037915;28;88794;-54
2024/04/05 01:39:11;;;;;;;;;;;15.30;57.30;;;;;;5046131;28;86959;-52
2024/04/05 01:41:37;;;;;;;;;;;15.30;57.20;;;;;;5043314;28;87754;-53
2024/04/05 01:44:03;;;;;;;;;;;15.30;57.30;;;;;;5043388;28;87415;-52
2024/04/05 01:46:29;;;;;;;;;;;15.30;57.20;;;;;;5044013;27;87911;-52
2024/04/05 01:48:55;;;;;;;;;;;15.20;57.30;;;;;;5039419;27;87460;-52
2024/04/05 01:51:20;;;;;;;;;;;15.20;57.10;;;;;;5043672;27;87118;-51
2024/04/05 01:53:46;;;;;;;;;;;15.20;57.20;;;;;;5044803;27;88236;-51
2024/04/05 01:56:11;;;;;;;;;;;15.10;57.10;;;;;;5041997;28;87881;-53
2024/04/05 01:58:37;;;;;;;;;;;15.10;57.20;;;;;;5044262;28;86996;-51
2024/04/05 02:01:03;;;;;;;;;;;15.10;57.20;;;;;;5043770;27;87977;-53
2024/04/05 02:03:29;;;;;;;;;;;15.10;57.30;;;;;;5042672;27;87010;-52
2024/04/05 02:05:55;;;;;;;;;;;15.10;57.20;;;;;;5043476;27;87766;-53
2024/04/05 02:08:20;;;;;;;;;;;15.10;57.30;;;;;;5043184;28;87580;-52
2024/04/05 02:10:46;;;;;;;;;;;15.10;57.20;;;;;;5044120;28;86957;-52
2024/04/05 02:13:12;;;;;;;;;;;15.00;57.20;;;;;;5044227;28;87514;-52
2024/04/05 02:15:38;;;;;;;;;;;15.00;57.30;;;;;;5043354;28;87664;-52
2024/04/05 02:18:08;;;;;;;;;;;15.00;57.30;;;;;;5044526;28;86547;-51
2024/04/05 02:20:34;;;;;;;;;;;15.00;57.30;;;;;;5042458;28;87040;-55
2024/04/05 02:22:59;;;;;;;;;;;15.00;57.20;;;;;;5046527;28;87779;-55
2024/04/05 02:25:25;;;;;;;;;;;14.90;57.30;;;;;;5043062;27;88692;-53
2024/04/05 02:27:51;;;;;;;;;;;15.00;57.30;;;;;;5043123;27;87707;-52
2024/04/05 02:30:17;;;;;;;;;;;14.90;57.20;;;;;;5042303;27;86945;-52
2024/04/05 02:32:43;;;;;;;;;;;14.90;57.30;;;;;;5047381;27;86942;-53
2024/04/05 02:35:08;;;;;;;;;;;14.90;57.30;;;;;;5044196;28;87004;-52
2024/04/05 02:37:34;;;;;;;;;;;14.80;57.90;;;;;;5047326;28;87017;-55
2024/04/05 02:40:01;;;;;;;;;;;14.80;57.30;;;;;;5045501;27;87787;-53
2024/04/05 02:42:26;;;;;;;;;;;14.80;57.40;;;;;;5045627;27;86813;-52
2024/04/05 02:44:52;;;;;;;;;;;14.80;57.30;;;;;;5046385;27;87461;-53
2024/04/05 02:47:17;;;;;;;;;;;14.80;57.40;;;;;;5045024;28;87613;-51
2024/04/05 02:49:43;;;;;;;;;;;14.70;57.40;;;;;;5046588;28;88509;-55
2024/04/05 02:52:08;;;;;;;;;;;14.70;57.40;;;;;;5044247;27;87675;-52
2024/04/05 02:54:34;;;;;;;;;;;14.70;57.40;;;;;;5042614;28;87593;-52
2024/04/05 02:56:59;;;;;;;;;;;14.70;57.50;;;;;;5044545;28;86976;-52
2024/04/05 02:59:25;;;;;;;;;;;14.70;57.50;;;;;;5044423;28;87438;-55
2024/04/05 03:01:50;;;;;;;;;;;14.70;57.50;;;;;;5046253;28;87621;-54
2024/04/05 03:04:16;;;;;;;;;;;14.60;57.50;;;;;;5050042;28;87038;-53
2024/04/05 03:06:41;;;;;;;;;;;14.60;57.50;;;;;;5047184;28;86648;-54
2024/04/05 03:09:07;;;;;;;;;;;14.60;57.50;;;;;;5047143;28;87245;-52
2024/04/05 03:11:33;;;;;;;;;;;14.60;57.70;;;;;;5045963;28;86994;-53
2024/04/05 03:13:58;;;;;;;;;;;14.60;57.50;;;;;;5044679;28;89449;-54
2024/04/05 03:16:24;;;;;;;;;;;14.60;57.50;;;;;;5041622;27;87735;-52
2024/04/05 03:18:49;;;;;;;;;;;14.50;57.50;;;;;;5043503;27;87461;-52
2024/04/05 03:21:15;;;;;;;;;;;14.50;58.20;;;;;;5045237;28;87422;-52
2024/04/05 03:23:40;;;;;;;;;;;14.50;57.60;;;;;;5046643;28;87442;-50
2024/04/05 03:26:06;;;;;;;;;;;14.50;57.60;;;;;;5048881;28;87322;-53
2024/04/05 03:28:31;;;;;;;;;;;14.50;57.60;;;;;;5044476;28;87097;-53
2024/04/05 03:30:57;;;;;;;;;;;14.40;57.60;;;;;;5044492;27;87821;-54
2024/04/05 03:33:23;;;;;;;;;;;14.40;57.70;;;;;;5045974;28;88012;-52
2024/04/05 03:35:48;;;;;;;;;;;14.40;57.70;;;;;;5042724;28;87197;-52
2024/04/05 03:38:14;;;;;;;;;;;14.40;57.70;;;;;;5045045;27;88601;-51
2024/04/05 03:40:39;;;;;;;;;;;14.40;57.70;;;;;;5045356;27;87375;-52
2024/04/05 03:43:07;;;;;;;;;;;14.40;57.70;;;;;;5044239;27;87270;-53
2024/04/05 03:45:32;;;;;;;;;;;14.30;57.70;;;;;;5041815;28;87356;-52
2024/04/05 03:47:58;;;;;;;;;;;14.30;57.70;;;;;;5047611;27;88840;-52
2024/04/05 03:50:23;;;;;;;;;;;14.30;57.80;;;;;;5046029;27;87081;-51
2024/04/05 03:52:49;;;;;;;;;;;14.30;57.60;;;;;;5044953;27;87715;-51
2024/04/05 03:55:15;;;;;;;;;;;14.30;57.80;;;;;;5045163;28;86657;-55
2024/04/05 03:57:42;;;;;;;;;;;14.20;57.70;;;;;;5046199;27;87089;-50
2024/04/05 04:00:08;;;;;;;;;;;14.30;57.70;;;;;;5044182;28;88575;-51
2024/04/05 04:02:35;;;;;;;;;;;14.20;57.70;;;;;;5041260;27;88083;-55
2024/04/05 04:05:00;;;;;;;;;;;14.20;57.70;;;;;;5043434;27;88387;-52
2024/04/05 04:07:26;;;;;;;;;;;14.20;57.80;;;;;;5045093;27;87556;-52
2024/04/05 04:09:51;;;;;;;;;;;14.10;57.90;;;;;;5047365;28;87129;-52
2024/04/05 04:12:17;;;;;;;;;;;14.10;57.90;;;;;;5044927;27;88396;-53
2024/04/05 04:14:43;;;;;;;;;;;14.10;57.80;;;;;;5044901;27;87183;-54
2024/04/05 04:17:09;;;;;;;;;;;14.20;57.80;;;;;;5044679;27;87061;-53
2024/04/05 04:19:34;;;;;;;;;;;14.10;57.80;;;;;;5045848;27;87832;-53
2024/04/05 04:22:01;;;;;;;;;;;14.10;57.80;;;;;;5044541;28;87844;-51
2024/04/05 04:24:26;;;;;;;;;;;14.10;57.80;;;;;;5045619;27;88028;-52
2024/04/05 04:26:52;;;;;;;;;;;14.00;57.80;;;;;;5044634;27;88332;-55
2024/04/05 04:29:17;;;;;;;;;;;14.00;57.70;;;;;;5044306;28;87062;-51
2024/04/05 04:31:43;;;;;;;;;;;14.10;57.90;;;;;;5045686;27;88094;-51
2024/04/05 04:34:08;;;;;;;;;;;14.00;57.80;;;;;;5044933;27;86881;-52
2024/04/05 04:36:34;;;;;;;;;;;14.00;57.80;;;;;;5045914;28;86950;-52
2024/04/05 04:39:00;;;;;;;;;;;14.00;57.80;;;;;;5045156;27;86852;-54
2024/04/05 04:41:26;;;;;;;;;;;14.00;57.80;;;;;;5045688;27;87241;-52
2024/04/05 04:43:53;;;;;;;;;;;14.00;57.80;;;;;;5045902;27;87450;-52
2024/04/05 04:46:18;;;;;;;;;;;14.00;57.80;;;;;;5044409;27;87623;-52
2024/04/05 04:48:44;;;;;;;;;;;14.00;57.80;;;;;;5044419;27;87088;-52
2024/04/05 04:51:10;;;;;;;;;;;13.90;57.80;;;;;;5044009;27;88362;-52
2024/04/05 04:53:36;;;;;;;;;;;13.90;57.90;;;;;;5042327;28;87032;-51
2024/04/05 04:56:02;;;;;;;;;;;13.90;57.80;;;;;;5043062;27;86986;-51
2024/04/05 04:58:33;;;;;;;;;;;13.90;57.80;;;;;;5044371;27;87375;-55
2024/04/05 05:00:58;;;;;;;;;;;13.90;57.90;;;;;;5042998;27;87782;-52
2024/04/05 05:03:24;;;;;;;;;;;13.90;57.90;;;;;;5042666;27;87529;-52
2024/04/05 05:05:50;;;;;;;;;;;13.90;58.00;;;;;;5042923;28;87806;-53
2024/04/05 05:08:15;;;;;;;;;;;13.80;57.90;;;;;;5045705;27;87155;-53
2024/04/05 05:10:42;;;;;;;;;;;13.90;57.90;;;;;;5041777;28;87280;-51
2024/04/05 05:13:11;;;;;;;;;;;13.80;58.00;;;;;;5044284;28;88487;-49
2024/04/05 05:15:40;;;;;;;;;;;13.80;58.00;;;;;;5042566;28;87927;-54
2024/04/05 05:18:06;;;;;;;;;;;13.80;58.00;;;;;;5043988;28;88497;-54
2024/04/05 05:20:32;;;;;;;;;;;13.80;58.10;;;;;;5044851;27;87213;-53
2024/04/05 05:22:58;;;;;;;;;;;13.80;58.10;;;;;;5043774;27;88038;-51
2024/04/05 05:25:24;;;;;;;;;;;13.80;58.10;;;;;;5042758;27;87738;-55
2024/04/05 05:27:49;;;;;;;;;;;13.80;58.20;;;;;;5043429;28;87020;-52
2024/04/05 05:30:15;;;;;;;;;;;13.80;58.10;;;;;;5043815;27;87905;-53
2024/04/05 05:32:41;;;;;;;;;;;13.80;58.20;;;;;;5043996;27;87743;-53
2024/04/05 05:35:07;;;;;;;;;;;13.70;58.20;;;;;;5047235;27;86963;-52
2024/04/05 05:37:33;;;;;;;;;;;13.70;58.20;;;;;;5043722;28;88634;-54
2024/04/05 05:39:58;;;;;;;;;;;13.70;58.30;;;;;;5040805;27;88055;-55
2024/04/05 05:42:24;;;;;;;;;;;13.70;58.10;;;;;;5041685;27;88857;-55
2024/04/05 05:44:49;;;;;;;;;;;13.70;58.10;;;;;;5039791;28;87744;-55
2024/04/05 05:47:16;;;;;;;;;;;13.70;58.10;;;;;;5041182;28;87053;-53
2024/04/05 05:49:42;;;;;;;;;;;13.70;58.20;;;;;;5040837;28;88575;-53
2024/04/05 05:52:08;;;;;;;;;;;13.70;58.20;;;;;;5042983;27;90131;-52
2024/04/05 05:54:34;;;;;;;;;;;13.70;58.20;;;;;;5044314;28;87051;-51
2024/04/05 05:57:00;;;;;;;;;;;13.70;58.10;;;;;;5045421;27;86737;-51
2024/04/05 05:59:25;;;;;;;;;;;13.80;58.10;;;;;;5044369;27;86999;-54
2024/04/05 06:01:51;;;;;;;;;;;13.80;58.10;;;;;;5042458;27;87764;-53
2024/04/05 06:04:17;;;;;;;;;;;13.80;58.00;;;;;;5042149;27;88414;-53
2024/04/05 06:06:43;;;;;;;;;;;13.70;58.00;;;;;;5042799;28;87556;-54
2024/04/05 06:09:09;;;;;;;;;;;13.80;58.10;;;;;;5043590;27;87156;-50
2024/04/05 06:11:34;;;;;;;;;;;13.70;58.10;;;;;;5041364;27;87713;-52
2024/04/05 06:14:00;;;;;;;;;;;13.70;58.10;;;;;;5040142;28;87099;-52
2024/04/05 06:16:27;;;;;;;;;;;13.70;58.20;;;;;;5044384;28;87838;-53
2024/04/05 06:18:52;;;;;;;;;;;13.70;58.20;;;;;;5043604;27;88455;-52
2024/04/05 06:21:18;;;;;;;;;;;13.70;58.30;;;;;;5044665;28;86812;-54
2024/04/05 06:23:43;;;;;;;;;;;13.70;58.40;;;;;;5041311;27;90123;-53
2024/04/05 06:26:09;;;;;;;;;;;13.70;58.30;;;;;;5044243;28;87001;-50
2024/04/05 06:28:35;;;;;;;;;;;13.70;58.40;;;;;;5043801;27;87905;-52
2024/04/05 06:31:01;;;;;;;;;;;13.70;58.30;;;;;;5043532;28;88650;-55
2024/04/05 06:33:26;;;;;;;;;;;13.70;58.40;;;;;;5042804;27;87096;-53
2024/04/05 06:35:59;;;;;;;;;;;13.70;58.40;;;;;;5043225;28;87032;-54
2024/04/05 06:38:25;;;;;;;;;;;13.70;58.50;;;;;;5040420;28;88448;-52
2024/04/05 06:40:57;;;;;;;;;;;13.70;58.50;;;;;;5046119;27;86964;-53
2024/04/05 06:43:27;;;;;;;;;;;13.70;58.50;;;;;;5043352;27;87632;-53
2024/04/05 06:45:59;;;;;;;;;;;13.70;58.50;;;;;;5053030;27;87095;-55
2024/04/05 06:48:25;;;;;;;;;;;13.70;58.50;;;;;;5040670;28;87040;-52
2024/04/05 06:50:51;;;;;;;;;;;13.70;58.60;;;;;;5039733;28;88457;-54
2024/04/05 06:53:21;;;;;;;;;;;13.70;58.60;;;;;;5040898;27;88005;-54
2024/04/05 06:55:47;;;;;;;;;;;13.70;58.70;;;;;;5037590;28;87783;-54
2024/04/05 06:58:12;;;;;;;;;;;13.70;58.70;;;;;;5043664;28;87449;-52
2024/04/05 07:00:39;;;;;;;;;;;13.70;58.80;;;;;;5044530;27;86971;-50
2024/04/05 07:03:05;;;;;;;;;;;13.70;58.80;;;;;;5041611;28;87468;-53
2024/04/05 07:05:30;;;;;;;;;;;13.70;58.80;;;;;;5042620;27;87052;-54
2024/04/05 07:07:56;;;;;;;;;;;13.70;58.80;;;;;;5043070;27;87859;-52
2024/04/05 07:10:22;;;;;;;;;;;13.60;58.80;;;;;;5043291;27;86940;-51
2024/04/05 07:12:50;;;;;;;;;;;13.70;58.90;;;;;;5042675;27;86969;-54
2024/04/05 07:15:16;;;;;;;;;;;13.70;58.90;;;;;;5043325;28;87140;-54
2024/04/05 07:17:41;;;;;;;;;;;13.60;58.80;;;;;;5041690;28;89428;-50
2024/04/05 07:20:11;;;;;;;;;;;13.60;58.90;;;;;;5041776;28;87057;-52
2024/04/05 07:22:36;;;;;;;;;;;13.60;58.90;;;;;;5048816;28;88054;-52
2024/04/05 07:25:06;;;;;;;;;;;13.60;58.90;;;;;;5046410;27;87048;-52
2024/04/05 07:27:32;;;;;;;;;;;13.60;58.90;;;;;;5045461;27;87139;-54
2024/04/05 07:29:57;;;;;;;;;;;13.70;59.60;;;;;;5045068;28;87904;-52
2024/04/05 07:32:23;;;;;;;;;;;13.60;59.00;;;;;;5046221;27;87496;-53
2024/04/05 07:34:48;;;;;;;;;;;13.70;59.10;;;;;;5045900;27;87790;-53
2024/04/05 07:37:14;;;;;;;;;;;13.70;59.00;;;;;;5045548;28;87749;-55
2024/04/05 07:39:39;;;;;;;;;;;13.60;59.00;;;;;;5046408;27;87008;-52
2024/04/05 07:42:05;;;;;;;;;;;13.70;59.00;;;;;;5046160;27;88107;-52
2024/04/05 07:44:31;;;;;;;;;;;13.70;59.10;;;;;;5049145;27;87755;-55
2024/04/05 07:46:56;;;;;;;;;;;13.70;59.00;;;;;;5046586;28;87350;-51
2024/04/05 07:49:22;;;;;;;;;;;13.70;59.10;;;;;;5045697;28;87356;-52
2024/04/05 07:51:48;;;;;;;;;;;13.70;59.10;;;;;;5042522;28;87092;-55
2024/04/05 07:54:14;;;;;;;;;;;13.70;59.20;;;;;;5044019;28;87024;-52
2024/04/05 07:56:39;;;;;;;;;;;13.70;59.20;;;;;;5045196;27;88526;-54
2024/04/05 07:59:06;;;;;;;;;;;13.70;59.10;;;;;;5045451;28;86256;-54
2024/04/05 08:01:31;;;;;;;;;;;13.70;59.10;;;;;;5042402;28;87024;-51
2024/04/05 08:03:57;;;;;;;;;;;13.70;59.10;;;;;;5045581;27;87181;-52
2024/04/05 08:06:23;;;;;;;;;;;13.70;59.10;;;;;;5044739;28;88705;-52
2024/04/05 08:08:49;;;;;;;;;;;13.70;59.10;;;;;;5042189;28;88487;-53
2024/04/05 08:11:14;;;;;;;;;;;13.80;59.20;;;;;;5045785;28;86982;-51
2024/04/05 08:13:40;;;;;;;;;;;13.70;59.10;;;;;;5044694;27;87136;-55
2024/04/05 08:16:06;;;;;;;;;;;13.70;59.10;;;;;;5043002;28;86825;-54
2024/04/05 08:18:32;;;;;;;;;;;13.80;59.10;;;;;;5040628;27;87654;-53
2024/04/05 08:20:57;;;;;;;;;;;13.80;59.20;;;;;;5043226;28;87078;-54
2024/04/05 08:23:23;;;;;;;;;;;13.70;59.10;;;;;;5042509;28;87110;-55
2024/04/05 08:25:48;;;;;;;;;;;13.80;59.10;;;;;;5042953;28;86959;-54
2024/04/05 08:28:14;;;;;;;;;;;13.70;59.10;;;;;;5048059;27;87388;-53
2024/04/05 08:30:40;;;;;;;;;;;13.80;59.20;;;;;;5042423;27;87931;-52
2024/04/05 08:33:09;;;;;;;;;;;13.80;59.10;;;;;;5042948;28;88062;-52
2024/04/05 08:35:34;;;;;;;;;;;13.80;59.10;;;;;;5042280;28;87930;-54
2024/04/05 08:38:01;;;;;;;;;;;13.80;59.10;;;;;;5041430;27;87048;-54
2024/04/05 08:40:28;;;;;;;;;;;13.80;59.10;;;;;;5041831;27;88117;-54
2024/04/05 08:42:55;;;;;;;;;;;13.80;59.20;;;;;;5043781;28;88691;-51
2024/04/05 08:45:20;;;;;;;;;;;13.80;59.10;;;;;;5042364;27;87041;-53
2024/04/05 08:47:47;;;;;;;;;;;13.80;59.10;;;;;;5041591;27;87271;-52
2024/04/05 08:50:14;;;;;;;;;;;13.80;59.10;;;;;;5045510;27;87560;-52
2024/04/05 08:52:40;;;;;;;;;;;13.80;59.20;;;;;;5044951;27;88135;-50
2024/04/05 08:55:06;;;;;;;;;;;13.80;59.10;;;;;;5041067;27;89946;-52
2024/04/05 08:57:36;;;;;;;;;;;13.80;59.20;;;;;;5044574;27;87990;-51
2024/04/05 09:00:05;;;;;;;;;;;13.80;59.10;;;;;;5044572;27;88236;-54
2024/04/05 09:02:31;;;;;;;;;;;13.80;59.10;;;;;;5043060;28;88495;-52
2024/04/05 09:05:02;;;;;;;;;;;13.80;59.00;;;;;;5044771;27;87079;-53
2024/04/05 09:07:29;;;;;;;;;;;13.90;59.20;;;;;;5044381;27;87257;-54
2024/04/05 09:09:55;;;;;;;;;;;13.90;59.10;;;;;;5047450;27;88040;-52
2024/04/05 09:12:25;;;;;;;;;;;13.90;59.20;;;;;;5044738;27;86962;-53
2024/04/05 09:14:57;;;;;;;;;;;13.90;59.20;;;;;;5041849;27;88377;-54
2024/04/05 09:17:23;;;;;;;;;;;13.90;59.30;;;;;;5044299;27;87041;-51
2024/04/05 09:19:49;;;;;;;;;;;13.90;59.40;;;;;;5044471;28;87788;-55
2024/04/05 09:22:24;;;;;;;;;;;13.90;59.40;;;;;;5044070;28;87607;-55
2024/04/05 09:25:00;;;;;;;;;;;13.90;59.40;;;;;;5041206;28;87566;-53
2024/04/05 09:27:25;;;;;;;;;;;14.00;59.40;;;;;;5045130;27;86992;-54
2024/04/05 09:29:59;;;;;;;;;;;13.90;59.40;;;;;;5043993;28;87499;-54
2024/04/05 09:32:26;;;;;;;;;;;14.00;59.50;;;;;;5047865;27;86953;-55
2024/04/05 09:34:52;;;;;;;;;;;14.00;59.40;;;;;;5044470;27;88452;-55
2024/04/05 09:37:18;;;;;;;;;;;14.00;59.30;;;;;;5042278;27;86429;-54
2024/04/05 09:39:46;;;;;;;;;;;14.00;59.40;;;;;;5042203;27;87130;-56
2024/04/05 09:42:12;;;;;;;;;;;14.10;59.50;;;;;;5043999;27;87598;-51
2024/04/05 09:44:40;;;;;;;;;;;14.10;59.50;;;;;;5044517;28;88005;-52
2024/04/05 09:47:06;;;;;;;;;;;14.10;59.60;;;;;;5044805;28;87928;-55
2024/04/05 09:49:31;;;;;;;;;;;14.10;59.70;;;;;;5044307;28;87412;-56
2024/04/05 09:51:59;;;;;;;;;;;14.10;59.70;;;;;;5042873;27;87036;-55
2024/04/05 09:54:27;;;;;;;;;;;14.20;59.70;;;;;;5047222;28;87325;-55
2024/04/05 09:56:53;;;;;;;;;;;14.10;59.70;;;;;;5041044;27;87082;-55
2024/04/05 09:59:21;;;;;;;;;;;14.10;59.70;;;;;;5042428;28;87095;-55
2024/04/05 10:01:47;;;;;;;;;;;14.10;59.60;;;;;;5044824;27;87653;-56
2024/04/05 10:04:12;;;;;;;;;;;14.20;59.60;;;;;;5044436;28;86971;-52
2024/04/05 10:06:39;;;;;;;;;;;14.20;59.60;;;;;;5044244;27;86974;-53
2024/04/05 10:09:26;;;;;;;;;;;14.20;60.20;;;;;;5043646;28;89421;-54
2024/04/05 10:11:52;;;;;;;;;;;14.30;59.60;;;;;;5040227;28;88001;-55
2024/04/05 10:14:21;;;;;;;;;;;14.30;59.60;;;;;;5040380;27;87681;-51
2024/04/05 10:16:47;;;;;;;;;;;14.30;59.60;;;;;;5045994;27;88590;-53
2024/04/05 10:19:13;;;;;;;;;;;14.40;59.60;;;;;;5040793;27;89717;-51
2024/04/05 10:21:38;;;;;;;;;;;14.30;59.70;;;;;;5043319;28;87632;-51
2024/04/05 10:24:06;;;;;;;;;;;14.40;59.60;;;;;;5043362;28;86882;-53
2024/04/05 10:26:34;;;;;;;;;;;14.40;59.60;;;;;;5041780;27;87943;-53
2024/04/05 10:29:06;;;;;;;;;;;14.40;59.60;;;;;;5042961;27;87262;-54
2024/04/05 10:31:32;;;;;;;;;;;14.40;59.70;;;;;;5044137;27;87871;-53
2024/04/05 10:33:58;;;;;;;;;;;14.40;59.70;;;;;;5042591;27;88407;-54
2024/04/05 10:36:24;;;;;;;;;;;14.50;59.80;;;;;;5043492;28;87724;-52
2024/04/05 10:38:49;;;;;;;;;;;14.50;59.80;;;;;;5046127;28;87141;-54
2024/04/05 10:41:16;;;;;;;;;;;14.50;59.70;;;;;;5039477;28;87523;-53
2024/04/05 10:43:43;;;;;;;;;;;14.50;59.60;;;;;;5043525;28;87063;-52
2024/04/05 10:46:10;;;;;;;;;;;14.60;59.70;;;;;;5041853;28;87917;-53
2024/04/05 10:48:35;;;;;;;;;;;14.60;59.60;;;;;;5042105;28;87713;-53
2024/04/05 10:51:04;;;;;;;;;;;14.60;59.50;;;;;;5043445;27;86253;-53
2024/04/05 10:53:29;;;;;;;;;;;14.60;59.60;;;;;;5044805;27;87362;-51
2024/04/05 10:55:55;;;;;;;;;;;14.70;59.60;;;;;;5047011;27;86924;-53
2024/04/05 10:58:21;;;;;;;;;;;14.70;59.60;;;;;;5045505;27;88136;-52
2024/04/05 11:00:46;;;;;;;;;;;14.70;59.50;;;;;;5047718;28;89354;-51
2024/04/05 11:03:13;;;;;;;;;;;14.70;59.40;;;;;;5047066;27;86891;-50
2024/04/05 11:05:39;;;;;;;;;;;14.70;59.50;;;;;;5042961;28;87164;-54
2024/04/05 11:08:05;;;;;;;;;;;14.80;59.40;;;;;;5045488;28;88610;-53
2024/04/05 11:10:32;;;;;;;;;;;14.70;59.10;;;;;;5044000;28;86938;-51
2024/04/05 11:12:58;;;;;;;;;;;14.80;59.20;;;;;;5044116;27;86995;-54
2024/04/05 11:15:23;;;;;;;;;;;14.80;59.20;;;;;;5044934;27;86949;-53
2024/04/05 11:17:59;;;;;;;;;;;14.90;59.20;;;;;;5045951;27;87034;-51
2024/04/05 11:20:27;;;;;;;;;;;14.90;59.10;;;;;;5049680;27;87739;-52
2024/04/05 11:23:03;;;;;;;;;;;14.90;59.10;;;;;;5039692;27;88269;-55
2024/04/05 11:25:29;;;;;;;;;;;15.00;59.00;;;;;;5045728;27;88830;-55
2024/04/05 11:27:54;;;;;;;;;;;15.00;59.10;;;;;;5044245;28;87370;-52
2024/04/05 11:30:20;;;;;;;;;;;15.00;58.90;;;;;;5044931;27;87443;-52
2024/04/05 11:32:46;;;;;;;;;;;15.00;59.00;;;;;;5045667;27;87127;-55
2024/04/05 11:35:12;;;;;;;;;;;15.00;58.60;;;;;;5042964;28;88449;-52
2024/04/05 11:37:43;;;;;;;;;;;15.10;58.60;;;;;;5040950;28;87027;-55
2024/04/05 11:40:09;;;;;;;;;;;15.10;58.40;;;;;;5045741;28;88039;-53
2024/04/05 11:42:38;;;;;;;;;;;15.10;58.60;;;;;;5049134;28;87471;-55
2024/04/05 11:45:05;;;;;;;;;;;15.20;58.70;;;;;;5046392;27;88024;-54
2024/04/05 11:47:32;;;;;;;;;;;15.20;58.40;;;;;;5044506;28;89611;-52
2024/04/05 11:49:58;;;;;;;;;;;15.20;58.80;;;;;;5042794;27;87082;-55
2024/04/05 11:52:23;;;;;;;;;;;15.20;58.90;;;;;;5044819;27;88122;-55
2024/04/05 11:54:49;;;;;;;;;;;15.20;58.90;;;;;;5043134;28;87334;-54
2024/04/05 11:57:16;;;;;;;;;;;15.30;58.40;;;;;;5046023;28;87541;-55
2024/04/05 11:59:42;;;;;;;;;;;15.30;58.20;;;;;;5046063;27;88290;-53
2024/04/05 12:02:08;;;;;;;;;;;15.30;58.40;;;;;;5045584;27;88498;-55
2024/04/05 12:04:33;;;;;;;;;;;15.30;58.80;;;;;;5048436;27;86327;-52
2024/04/05 12:06:59;;;;;;;;;;;15.40;58.50;;;;;;5046030;27;87633;-55
2024/04/05 12:09:25;;;;;;;;;;;15.40;58.70;;;;;;5045764;27;87175;-53
2024/04/05 12:11:50;;;;;;;;;;;15.40;58.70;;;;;;5044962;27;87814;-53
2024/04/05 12:14:16;;;;;;;;;;;15.40;58.60;;;;;;5043294;27;87632;-52
2024/04/05 12:16:41;;;;;;;;;;;15.50;58.60;;;;;;5046021;27;87084;-55
2024/04/05 12:19:07;;;;;;;;;;;15.50;58.60;;;;;;5042202;27;88217;-55
2024/04/05 12:21:33;;;;;;;;;;;15.60;58.40;;;;;;5045211;28;87693;-55
2024/04/05 12:23:59;;;;;;;;;;;15.60;58.60;;;;;;5044180;27;88858;-53
2024/04/05 12:26:24;;;;;;;;;;;15.60;58.70;;;;;;5048121;28;87128;-55
2024/04/05 12:28:50;;;;;;;;;;;15.60;58.10;;;;;;5046433;27;86212;-55
2024/04/05 12:31:16;;;;;;;;;;;15.60;58.40;;;;;;5045855;27;87497;-53
2024/04/05 12:33:41;;;;;;;;;;;15.70;58.00;;;;;;5041131;27;86978;-51
2024/04/05 12:36:09;;;;;;;;;;;15.70;58.20;;;;;;5044405;27;88080;-54
2024/04/05 12:38:41;;;;;;;;;;;15.70;58.50;;;;;;5039472;27;88917;-54
2024/04/05 12:41:07;;;;;;;;;;;15.80;58.50;;;;;;5041521;28;87157;-54
2024/04/05 12:43:34;;;;;;;;;;;15.80;58.10;;;;;;5045814;28;87827;-54
2024/04/05 12:46:00;;;;;;;;;;;15.80;58.30;;;;;;5046071;27;88049;-54
2024/04/05 12:48:26;;;;;;;;;;;15.80;58.50;;;;;;5043611;27;88038;-55
2024/04/05 12:51:02;;;;;;;;;;;15.90;58.40;;;;;;5045647;27;87120;-54
2024/04/05 12:53:29;;;;;;;;;;;15.90;58.40;;;;;;5045061;28;86919;-54
2024/04/05 12:55:58;;;;;;;;;;;15.90;58.40;;;;;;5044330;27;87044;-53
2024/04/05 12:58:26;;;;;;;;;;;16.00;58.30;;;;;;5043835;27;88067;-54
2024/04/05 13:00:52;;;;;;;;;;;16.00;58.00;;;;;;5041593;27;88268;-54
2024/04/05 13:03:19;;;;;;;;;;;16.00;58.10;;;;;;5044546;27;87825;-54
2024/04/05 13:05:44;;;;;;;;;;;16.00;58.10;;;;;;5044806;27;88200;-53
2024/04/05 13:08:10;;;;;;;;;;;16.10;58.30;;;;;;5044971;27;88292;-56
2024/04/05 13:10:36;;;;;;;;;;;16.10;58.00;;;;;;5047108;27;87169;-53
2024/04/05 13:13:01;;;;;;;;;;;16.10;57.90;;;;;;5042623;28;88081;-53
2024/04/05 13:15:27;;;;;;;;;;;16.10;57.90;;;;;;5041022;27;86997;-51
2024/04/05 13:17:52;;;;;;;;;;;16.20;57.60;;;;;;5044869;28;86660;-52
2024/04/05 13:20:22;;;;;;;;;;;16.20;57.50;;;;;;5041002;28;89986;-54
2024/04/05 13:22:48;;;;;;;;;;;16.20;57.80;;;;;;5043274;27;88220;-56
2024/04/05 13:25:13;;;;;;;;;;;16.30;57.70;;;;;;5041830;28;88759;-55
2024/04/05 13:27:39;;;;;;;;;;;16.30;57.50;;;;;;5044952;27;88339;-54
2024/04/05 13:30:05;;;;;;;;;;;16.30;57.60;;;;;;5044270;28;87453;-54
2024/04/05 13:32:30;;;;;;;;;;;16.30;57.30;;;;;;5044490;27;87756;-55
2024/04/05 13:34:57;;;;;;;;;;;16.40;57.40;;;;;;5043240;27;87089;-55
2024/04/05 13:37:22;;;;;;;;;;;16.40;57.60;;;;;;5041844;28;88007;-55
2024/04/05 13:39:48;;;;;;;;;;;16.40;57.40;;;;;;5041212;28;86958;-54
2024/04/05 13:42:14;;;;;;;;;;;16.50;57.50;;;;;;5043376;28;86292;-56
2024/04/05 13:44:39;;;;;;;;;;;16.50;57.40;;;;;;5041873;27;87113;-53
2024/04/05 13:47:05;;;;;;;;;;;16.50;56.90;;;;;;5042705;28;87652;-55
2024/04/05 13:49:31;;;;;;;;;;;16.50;57.00;;;;;;5040620;28;89509;-52
2024/04/05 13:51:56;;;;;;;;;;;16.60;56.70;;;;;;5047046;27;88877;-55
2024/04/05 13:54:22;;;;;;;;;;;16.60;56.90;;;;;;5043744;27;86946;-53
2024/04/05 13:56:47;;;;;;;;;;;16.60;56.70;;;;;;5044473;28;87283;-52
2024/04/05 13:59:13;;;;;;;;;;;16.60;56.70;;;;;;5042430;28;87469;-51
2024/04/05 14:01:38;;;;;;;;;;;16.70;57.10;;;;;;5042217;27;87260;-54
2024/04/05 14:04:04;;;;;;;;;;;16.70;56.40;;;;;;5044534;28;86870;-54
2024/04/05 14:06:30;;;;;;;;;;;16.70;56.40;;;;;;5043019;28;86138;-51
2024/04/05 14:08:56;;;;;;;;;;;16.70;56.60;;;;;;5044293;27;87007;-54
2024/04/05 14:11:22;;;;;;;;;;;16.80;56.70;;;;;;5043484;27;87321;-56